Time;durP1;ratioP1;P1;durP2;ratioP2;P2;SDS_P1;SDS_P2;PMS_P1;PMS_P2;Temp;Humidity;BMP_temperature;BMP_pressure;BME280_temperature;BME280_humidity;BME280_pressure;Samples;Min_cycle;Max_cycle;Signal;HPM_P1;HPM_P2
2023/04/30 00:00:43;;;;;;;9.77;2.65;;;;;;;;;;5055568;28;20416;-82
2023/04/30 00:03:11;;;;;;;13.23;2.90;;;;;;;;;;5052901;28;20423;-83
2023/04/30 00:05:39;;;;;;;11.27;3.20;;;;;;;;;;5061189;28;20430;-82
2023/04/30 00:08:14;;;;;;;10.37;2.77;;;;;;;;;;5061959;28;20417;-82
2023/04/30 00:10:47;;;;;;;9.00;2.60;;;;;;;;;;5059979;28;20895;-82
2023/04/30 00:13:19;;;;;;;11.07;2.97;;;;;;;;;;5060398;28;20421;-82
2023/04/30 00:15:52;;;;;;;9.38;2.70;;;;;;;;;;5056892;28;20425;-82
2023/04/30 00:18:20;;;;;;;9.82;2.55;;;;;;;;;;5064634;28;20421;-82
2023/04/30 00:20:50;;;;;;;11.10;2.63;;;;;;;;;;5067032;28;20424;-82
2023/04/30 00:23:24;;;;;;;9.05;2.65;;;;;;;;;;5058698;28;20458;-82
2023/04/30 00:25:52;;;;;;;8.27;2.60;;;;;;;;;;5055577;28;20417;-82
2023/04/30 00:28:20;;;;;;;12.43;2.75;;;;;;;;;;5055306;28;21247;-82
2023/04/30 00:30:48;;;;;;;13.52;2.83;;;;;;;;;;5057152;28;20428;-82
2023/04/30 00:33:20;;;;;;;7.85;2.47;;;;;;;;;;5058997;28;21231;-82
2023/04/30 00:35:48;;;;;;;9.80;2.72;;;;;;;;;;5060011;28;20425;-82
2023/04/30 00:38:21;;;;;;;9.32;2.85;;;;;;;;;;5057741;28;20432;-82
2023/04/30 00:40:55;;;;;;;9.25;2.80;;;;;;;;;;5059832;28;20417;-82
2023/04/30 00:43:28;;;;;;;8.63;2.97;;;;;;;;;;5057529;28;20424;-82
2023/04/30 00:46:02;;;;;;;10.50;2.65;;;;;;;;;;5059165;28;20427;-82
2023/04/30 00:48:30;;;;;;;7.63;2.45;;;;;;;;;;5060101;28;20903;-82
2023/04/30 00:50:58;;;;;;;9.52;2.53;;;;;;;;;;5061085;28;20419;-80
2023/04/30 00:53:31;;;;;;;8.32;2.47;;;;;;;;;;5058811;28;20427;-82
2023/04/30 00:56:00;;;;;;;11.43;2.80;;;;;;;;;;5072806;28;20942;-82
2023/04/30 00:58:28;;;;;;;9.80;2.60;;;;;;;;;;5055562;28;20421;-83
2023/04/30 01:01:01;;;;;;;9.23;2.65;;;;;;;;;;5053767;28;20438;-82
2023/04/30 01:03:37;;;;;;;10.55;2.88;;;;;;;;;;5050905;28;20421;-81
2023/04/30 01:06:05;;;;;;;10.98;2.72;;;;;;;;;;5060485;28;20431;-82
2023/04/30 01:08:37;;;;;;;10.88;2.67;;;;;;;;;;5061529;28;20413;-82
2023/04/30 01:11:17;;;;;;;8.52;2.70;;;;;;;;;;5050698;28;20432;-82
2023/04/30 01:13:50;;;;;;;10.75;2.53;;;;;;;;;;5069090;28;21393;-81
2023/04/30 01:16:19;;;;;;;8.15;2.75;;;;;;;;;;5059868;28;20437;-81
2023/04/30 01:18:56;;;;;;;13.60;2.93;;;;;;;;;;5052061;28;20721;-82
2023/04/30 01:21:24;;;;;;;8.55;2.78;;;;;;;;;;5052785;28;20776;-81
2023/04/30 01:23:59;;;;;;;9.90;2.80;;;;;;;;;;5054841;28;20428;-82
2023/04/30 01:26:52;;;;;;;8.03;2.50;;;;;;;;;;5056751;28;20595;-82
2023/04/30 01:29:27;;;;;;;9.45;2.83;;;;;;;;;;5058065;28;20431;-82
2023/04/30 01:31:54;;;;;;;13.20;2.67;;;;;;;;;;5057900;28;20431;-82
2023/04/30 01:34:27;;;;;;;9.57;2.70;;;;;;;;;;5053356;28;20419;-82
2023/04/30 01:37:03;;;;;;;12.57;2.63;;;;;;;;;;5057153;28;20424;-82
2023/04/30 01:39:37;;;;;;;13.00;3.10;;;;;;;;;;5057314;28;20610;-81
2023/04/30 01:42:12;;;;;;;10.57;2.93;;;;;;;;;;5054317;28;20976;-82
2023/04/30 01:44:55;;;;;;;12.50;2.97;;;;;;;;;;5052278;28;20427;-82
2023/04/30 01:47:30;;;;;;;10.88;3.35;;;;;;;;;;5048670;28;20444;-82
2023/04/30 01:50:15;;;;;;;12.27;3.25;;;;;;;;;;5055431;28;20429;-82
2023/04/30 01:52:51;;;;;;;9.73;2.97;;;;;;;;;;5051030;28;20448;-82
2023/04/30 01:55:21;;;;;;;9.65;3.03;;;;;;;;;;5055897;28;20440;-81
2023/04/30 01:57:52;;;;;;;10.27;2.90;;;;;;;;;;5052386;28;20494;-82
2023/04/30 02:00:25;;;;;;;10.05;3.28;;;;;;;;;;5053512;28;20448;-81
2023/04/30 02:03:00;;;;;;;9.40;3.00;;;;;;;;;;5066165;28;20435;-82
2023/04/30 02:05:27;;;;;;;9.45;2.95;;;;;;;;;;5050075;28;20429;-82
2023/04/30 02:07:56;;;;;;;11.60;3.07;;;;;;;;;;5062914;28;20436;-81
2023/04/30 02:10:29;;;;;;;8.40;3.03;;;;;;;;;;5059448;28;20433;-82
2023/04/30 02:13:02;;;;;;;9.48;3.00;;;;;;;;;;5063628;28;20423;-82
2023/04/30 02:15:30;;;;;;;10.55;3.30;;;;;;;;;;5059450;28;20428;-82
2023/04/30 02:18:04;;;;;;;10.25;3.30;;;;;;;;;;5055752;28;20420;-81
2023/04/30 02:20:32;;;;;;;14.30;4.68;;;;;;;;;;5056750;28;20425;-82
2023/04/30 02:23:00;;;;;;;14.15;5.22;;;;;;;;;;5063533;28;20444;-82
2023/04/30 02:25:36;;;;;;;14.70;4.25;;;;;;;;;;5055695;28;20611;-81
2023/04/30 02:28:09;;;;;;;11.05;3.75;;;;;;;;;;5057178;28;21180;-82
2023/04/30 02:30:38;;;;;;;10.67;3.20;;;;;;;;;;5057916;28;20454;-82
2023/04/30 02:33:12;;;;;;;9.23;2.88;;;;;;;;;;5057783;28;20434;-82
2023/04/30 02:35:45;;;;;;;10.70;3.05;;;;;;;;;;5072429;28;20424;-82
2023/04/30 02:38:13;;;;;;;11.73;3.43;;;;;;;;;;5056911;28;20433;-82
2023/04/30 02:40:46;;;;;;;11.15;3.45;;;;;;;;;;5058646;28;20433;-82
2023/04/30 02:43:19;;;;;;;12.05;3.38;;;;;;;;;;5060238;28;20419;-82
2023/04/30 02:45:47;;;;;;;9.57;3.67;;;;;;;;;;5062218;28;20437;-82
2023/04/30 02:48:16;;;;;;;11.70;4.40;;;;;;;;;;5060823;28;20421;-82
2023/04/30 02:50:48;;;;;;;14.93;4.37;;;;;;;;;;5063874;28;20884;-82
2023/04/30 02:53:16;;;;;;;14.73;4.43;;;;;;;;;;5061401;28;20442;-83
2023/04/30 02:55:49;;;;;;;12.90;4.20;;;;;;;;;;5061355;28;20431;-81
2023/04/30 02:58:17;;;;;;;10.88;4.10;;;;;;;;;;5053267;28;20446;-82
2023/04/30 03:00:45;;;;;;;15.32;4.20;;;;;;;;;;5057499;28;20433;-81
2023/04/30 03:03:19;;;;;;;14.15;4.15;;;;;;;;;;5059325;28;20781;-82
2023/04/30 03:05:47;;;;;;;12.00;4.32;;;;;;;;;;5062983;28;20895;-82
2023/04/30 03:08:20;;;;;;;15.38;5.18;;;;;;;;;;5059232;28;20427;-81
2023/04/30 03:10:47;;;;;;;15.93;4.80;;;;;;;;;;5057716;28;20437;-82
2023/04/30 03:13:15;;;;;;;13.05;4.50;;;;;;;;;;5058234;28;21156;-82
2023/04/30 03:15:48;;;;;;;13.95;3.33;;;;;;;;;;5055498;28;20430;-81
2023/04/30 03:18:22;;;;;;;11.60;3.50;;;;;;;;;;5054525;28;20448;-81
2023/04/30 03:20:55;;;;;;;8.98;3.10;;;;;;;;;;5057581;28;20827;-81
2023/04/30 03:23:22;;;;;;;9.07;3.22;;;;;;;;;;5054140;28;20420;-81
2023/04/30 03:25:50;;;;;;;10.95;3.00;;;;;;;;;;5053452;28;20433;-81
2023/04/30 03:28:18;;;;;;;9.52;3.20;;;;;;;;;;5057771;28;20936;-82
2023/04/30 03:30:46;;;;;;;11.98;3.45;;;;;;;;;;5053411;28;20439;-81
2023/04/30 03:33:14;;;;;;;8.23;3.13;;;;;;;;;;5060808;28;20958;-81
2023/04/30 03:35:49;;;;;;;11.20;3.58;;;;;;;;;;5057818;28;20428;-81
2023/04/30 03:38:17;;;;;;;10.80;3.00;;;;;;;;;;5054256;28;20939;-81
2023/04/30 03:40:49;;;;;;;12.80;3.63;;;;;;;;;;5057947;28;20511;-82
2023/04/30 03:43:17;;;;;;;13.03;3.43;;;;;;;;;;5055537;28;20518;-81
2023/04/30 03:45:45;;;;;;;8.83;3.27;;;;;;;;;;5054949;28;21615;-81
2023/04/30 03:48:18;;;;;;;11.80;3.20;;;;;;;;;;5054800;28;20417;-81
2023/04/30 03:50:46;;;;;;;11.60;3.90;;;;;;;;;;5055119;28;22422;-82
2023/04/30 03:53:15;;;;;;;9.43;3.50;;;;;;;;;;5052892;28;20436;-82
2023/04/30 03:55:49;;;;;;;9.63;3.30;;;;;;;;;;5068906;28;21038;-81
2023/04/30 03:58:17;;;;;;;12.30;3.53;;;;;;;;;;5051333;28;20429;-82
2023/04/30 04:00:50;;;;;;;13.85;3.58;;;;;;;;;;5051735;28;20446;-82
2023/04/30 04:03:17;;;;;;;9.85;3.17;;;;;;;;;;5054682;28;20429;-82
2023/04/30 04:05:45;;;;;;;9.70;3.30;;;;;;;;;;5056109;28;20486;-82
2023/04/30 04:08:19;;;;;;;10.70;3.65;;;;;;;;;;5053422;28;20427;-82
2023/04/30 04:10:52;;;;;;;12.30;3.17;;;;;;;;;;5057966;28;20435;-81
2023/04/30 04:13:20;;;;;;;15.57;3.70;;;;;;;;;;5056675;28;20421;-81
2023/04/30 04:15:47;;;;;;;12.38;3.78;;;;;;;;;;5060314;28;20427;-82
2023/04/30 04:18:21;;;;;;;13.40;3.70;;;;;;;;;;5074339;28;20421;-80
2023/04/30 04:20:49;;;;;;;15.30;4.25;;;;;;;;;;5058549;28;20429;-82
2023/04/30 04:23:23;;;;;;;11.88;3.58;;;;;;;;;;5066552;28;20427;-82
2023/04/30 04:25:56;;;;;;;13.80;3.93;;;;;;;;;;5061564;28;20455;-82
2023/04/30 04:28:25;;;;;;;12.10;3.50;;;;;;;;;;5066642;28;20971;-82
2023/04/30 04:30:58;;;;;;;12.83;3.83;;;;;;;;;;5050444;28;20442;-81
2023/04/30 04:33:31;;;;;;;11.60;3.72;;;;;;;;;;5053976;28;20423;-81
2023/04/30 04:36:04;;;;;;;10.40;3.67;;;;;;;;;;5057097;28;20440;-81
2023/04/30 04:38:38;;;;;;;11.38;3.80;;;;;;;;;;5062143;28;20437;-82
2023/04/30 04:41:11;;;;;;;11.95;4.38;;;;;;;;;;5058150;28;20425;-81
2023/04/30 04:43:44;;;;;;;13.20;4.10;;;;;;;;;;5064063;28;20463;-81
2023/04/30 04:46:17;;;;;;;15.40;4.18;;;;;;;;;;5052128;28;20420;-81
2023/04/30 04:48:51;;;;;;;11.63;3.60;;;;;;;;;;5055348;28;20423;-81
2023/04/30 04:51:19;;;;;;;15.30;4.20;;;;;;;;;;5047241;28;20429;-81
2023/04/30 04:53:49;;;;;;;16.38;4.63;;;;;;;;;;5050346;28;20429;-82
2023/04/30 04:56:22;;;;;;;14.98;4.57;;;;;;;;;;5051384;28;20428;-81
2023/04/30 04:58:55;;;;;;;13.73;4.65;;;;;;;;;;5062105;28;20481;-82
2023/04/30 05:01:23;;;;;;;13.93;4.20;;;;;;;;;;5048818;28;20786;-82
2023/04/30 05:03:52;;;;;;;11.02;3.33;;;;;;;;;;5060878;28;20425;-81
2023/04/30 05:06:20;;;;;;;12.38;3.25;;;;;;;;;;5051713;28;20439;-80
2023/04/30 05:08:54;;;;;;;11.18;3.17;;;;;;;;;;5055113;28;20440;-81
2023/04/30 05:11:22;;;;;;;12.23;3.42;;;;;;;;;;5049236;28;20411;-80
2023/04/30 05:13:51;;;;;;;11.02;4.15;;;;;;;;;;5050526;28;20424;-82
2023/04/30 05:16:25;;;;;;;7.93;2.67;;;;;;;;;;5054211;28;20933;-82
2023/04/30 05:18:52;;;;;;;11.35;3.10;;;;;;;;;;5054140;28;20426;-82
2023/04/30 05:21:20;;;;;;;8.32;2.72;;;;;;;;;;5049813;28;20444;-80
2023/04/30 05:23:48;;;;;;;7.53;2.50;;;;;;;;;;5055507;28;20437;-82
2023/04/30 05:26:23;;;;;;;8.60;2.95;;;;;;;;;;5054481;28;20905;-82
2023/04/30 05:28:51;;;;;;;7.65;3.15;;;;;;;;;;5055295;28;20415;-81
2023/04/30 05:31:24;;;;;;;7.60;2.65;;;;;;;;;;5055687;28;20946;-81
2023/04/30 05:33:56;;;;;;;12.55;3.08;;;;;;;;;;5052318;28;20909;-82
2023/04/30 05:36:24;;;;;;;11.00;2.88;;;;;;;;;;5055055;28;20436;-82
2023/04/30 05:38:52;;;;;;;8.93;3.00;;;;;;;;;;5053744;28;20887;-82
2023/04/30 05:41:21;;;;;;;9.15;2.90;;;;;;;;;;5053054;28;20423;-81
2023/04/30 05:43:49;;;;;;;9.18;2.97;;;;;;;;;;5052755;28;20424;-81
2023/04/30 05:46:17;;;;;;;9.25;2.90;;;;;;;;;;5047820;28;20436;-81
2023/04/30 05:48:44;;;;;;;13.10;3.50;;;;;;;;;;5068580;28;20429;-82
2023/04/30 05:51:12;;;;;;;10.82;3.47;;;;;;;;;;5048355;28;20451;-81
2023/04/30 05:53:45;;;;;;;9.82;3.17;;;;;;;;;;5053278;28;20426;-81
2023/04/30 05:56:13;;;;;;;9.40;3.03;;;;;;;;;;5052410;28;20429;-81
2023/04/30 05:58:47;;;;;;;10.52;3.50;;;;;;;;;;5053056;28;20429;-81
2023/04/30 06:01:19;;;;;;;9.40;2.70;;;;;;;;;;5053424;28;21252;-82
2023/04/30 06:03:52;;;;;;;10.57;3.03;;;;;;;;;;5055969;28;20429;-83
2023/04/30 06:06:20;;;;;;;11.07;3.20;;;;;;;;;;5053466;28;20419;-81
2023/04/30 06:08:48;;;;;;;9.35;3.10;;;;;;;;;;5049181;28;20410;-82
2023/04/30 06:11:21;;;;;;;10.68;2.85;;;;;;;;;;5060364;28;20427;-81
2023/04/30 06:13:50;;;;;;;12.43;2.95;;;;;;;;;;5058189;28;20426;-81
2023/04/30 06:16:18;;;;;;;9.87;2.70;;;;;;;;;;5054352;28;20502;-80
2023/04/30 06:18:46;;;;;;;10.25;3.05;;;;;;;;;;5060887;28;20796;-81
2023/04/30 06:21:19;;;;;;;12.82;3.28;;;;;;;;;;5054531;28;20428;-80
2023/04/30 06:23:47;;;;;;;10.10;3.03;;;;;;;;;;5051833;28;20436;-80
2023/04/30 06:26:15;;;;;;;9.48;3.10;;;;;;;;;;5052543;28;20765;-80
2023/04/30 06:28:48;;;;;;;9.60;3.00;;;;;;;;;;5057111;28;20808;-81
2023/04/30 06:31:17;;;;;;;9.88;3.30;;;;;;;;;;5057257;28;20422;-80
2023/04/30 06:33:45;;;;;;;8.60;2.53;;;;;;;;;;5073500;28;20429;-80
2023/04/30 06:36:18;;;;;;;11.40;2.60;;;;;;;;;;5054429;28;20425;-80
2023/04/30 06:38:46;;;;;;;7.53;2.40;;;;;;;;;;5057359;28;20431;-81
2023/04/30 06:41:16;;;;;;;7.32;2.50;;;;;;;;;;5057705;28;20529;-81
2023/04/30 06:43:44;;;;;;;10.77;2.70;;;;;;;;;;5053225;28;20771;-81
2023/04/30 06:46:18;;;;;;;9.10;2.55;;;;;;;;;;5062053;28;20423;-80
2023/04/30 06:48:46;;;;;;;8.02;2.40;;;;;;;;;;5054601;28;20424;-80
2023/04/30 06:51:19;;;;;;;7.68;2.60;;;;;;;;;;5075383;28;20429;-81
2023/04/30 06:53:46;;;;;;;9.45;2.70;;;;;;;;;;5051195;28;20429;-81
2023/04/30 06:56:15;;;;;;;10.02;2.58;;;;;;;;;;5054497;28;20436;-80
2023/04/30 06:58:43;;;;;;;8.23;2.13;;;;;;;;;;5050571;28;20442;-79
2023/04/30 07:01:11;;;;;;;6.40;2.42;;;;;;;;;;5048540;28;20425;-80
2023/04/30 07:03:40;;;;;;;6.45;2.10;;;;;;;;;;5053308;28;20426;-81
2023/04/30 07:06:08;;;;;;;12.73;2.30;;;;;;;;;;5062336;28;20494;-80
2023/04/30 07:08:37;;;;;;;8.35;1.98;;;;;;;;;;5023299;28;20423;-81
2023/04/30 07:11:05;;;;;;;6.55;2.13;;;;;;;;;;5059519;28;20437;-80
2023/04/30 07:13:38;;;;;;;8.07;2.40;;;;;;;;;;5069365;28;20436;-81
2023/04/30 07:16:11;;;;;;;8.55;2.30;;;;;;;;;;5051923;28;20908;-80
2023/04/30 07:18:39;;;;;;;11.20;2.58;;;;;;;;;;5055394;28;20435;-82
2023/04/30 07:21:13;;;;;;;7.38;2.17;;;;;;;;;;5056620;28;20772;-82
2023/04/30 07:23:42;;;;;;;9.43;2.50;;;;;;;;;;5058772;28;20422;-81
2023/04/30 07:26:15;;;;;;;9.00;2.17;;;;;;;;;;5056814;28;20768;-80
2023/04/30 07:28:48;;;;;;;9.10;2.27;;;;;;;;;;5059704;28;20425;-82
2023/04/30 07:31:21;;;;;;;7.72;2.20;;;;;;;;;;5060057;28;20430;-84
2023/04/30 07:33:49;;;;;;;7.38;2.22;;;;;;;;;;5057181;28;20441;-84
2023/04/30 07:36:26;;;;;;;8.73;2.00;;;;;;;;;;5059514;28;20427;-78
2023/04/30 07:38:58;;;;;;;11.57;3.70;;;;;;;;;;5060490;28;20461;-83
2023/04/30 07:41:26;;;;;;;9.80;2.40;;;;;;;;;;5053941;28;20425;-81
2023/04/30 07:43:59;;;;;;;6.70;2.23;;;;;;;;;;5058060;28;20431;-82
2023/04/30 07:46:32;;;;;;;8.88;2.33;;;;;;;;;;5057543;28;20429;-81
2023/04/30 07:49:00;;;;;;;8.90;2.08;;;;;;;;;;5053657;28;20917;-82
2023/04/30 07:51:31;;;;;;;8.65;2.00;;;;;;;;;;5061192;28;20986;-81
2023/04/30 07:54:04;;;;;;;7.93;1.90;;;;;;;;;;5061223;28;20447;-81
2023/04/30 07:56:37;;;;;;;7.15;2.13;;;;;;;;;;5057839;28;20430;-82
2023/04/30 07:59:04;;;;;;;8.13;2.20;;;;;;;;;;5054010;28;20440;-82
2023/04/30 08:01:37;;;;;;;7.60;2.40;;;;;;;;;;5059072;28;20433;-80
2023/04/30 08:04:06;;;;;;;8.20;2.35;;;;;;;;;;5055146;28;20475;-81
2023/04/30 08:06:40;;;;;;;8.23;2.25;;;;;;;;;;5054089;28;20436;-80
2023/04/30 08:09:14;;;;;;;5.85;2.17;;;;;;;;;;5059095;28;21059;-81
2023/04/30 08:11:47;;;;;;;10.10;2.47;;;;;;;;;;5050365;28;20436;-81
2023/04/30 08:14:15;;;;;;;6.27;2.10;;;;;;;;;;5054786;28;20761;-81
2023/04/30 08:16:48;;;;;;;9.90;2.60;;;;;;;;;;5074402;28;20420;-81
2023/04/30 08:19:15;;;;;;;8.73;2.37;;;;;;;;;;5054890;28;20848;-80
2023/04/30 08:21:50;;;;;;;5.28;1.90;;;;;;;;;;5058160;28;20427;-81
2023/04/30 08:24:23;;;;;;;9.20;2.30;;;;;;;;;;5050416;28;20432;-81
2023/04/30 08:26:50;;;;;;;6.50;2.13;;;;;;;;;;5058315;28;20423;-81
2023/04/30 08:29:18;;;;;;;5.32;2.05;;;;;;;;;;5058779;28;20482;-80
2023/04/30 08:31:46;;;;;;;5.68;1.95;;;;;;;;;;5057371;28;20445;-81
2023/04/30 08:34:15;;;;;;;5.68;1.98;;;;;;;;;;5072820;28;20809;-81
2023/04/30 08:36:43;;;;;;;5.03;2.00;;;;;;;;;;5059553;28;20510;-81
2023/04/30 08:39:18;;;;;;;6.50;1.90;;;;;;;;;;5055610;28;20433;-81
2023/04/30 08:41:54;;;;;;;7.50;2.30;;;;;;;;;;5060098;28;20425;-81
2023/04/30 08:44:22;;;;;;;7.57;2.05;;;;;;;;;;5057919;28;20447;-81
2023/04/30 08:46:56;;;;;;;8.50;2.33;;;;;;;;;;5057864;28;20428;-82
2023/04/30 08:49:24;;;;;;;9.02;2.28;;;;;;;;;;5056010;28;20423;-82
2023/04/30 08:51:59;;;;;;;7.05;2.45;;;;;;;;;;5059072;28;20432;-85
2023/04/30 08:54:29;;;;;;;6.87;2.00;;;;;;;;;;5058436;28;21022;-83
2023/04/30 08:57:02;;;;;;;6.05;1.80;;;;;;;;;;5072070;28;20420;-82
2023/04/30 08:59:30;;;;;;;8.10;2.33;;;;;;;;;;5058648;28;20444;-83
2023/04/30 09:01:59;;;;;;;7.63;2.13;;;;;;;;;;5060242;28;20921;-83
2023/04/30 09:04:27;;;;;;;7.82;1.98;;;;;;;;;;5056829;28;20429;-82
2023/04/30 09:06:57;;;;;;;6.22;1.90;;;;;;;;;;5057813;28;20434;-82
2023/04/30 09:09:29;;;;;;;5.60;2.00;;;;;;;;;;5054089;28;20420;-81
2023/04/30 09:12:13;;;;;;;8.63;2.13;;;;;;;;;;5057615;28;20433;-83
2023/04/30 09:14:41;;;;;;;8.57;2.20;;;;;;;;;;5058595;28;20424;-83
2023/04/30 09:17:21;;;;;;;8.73;2.03;;;;;;;;;;5063989;28;20447;-82
2023/04/30 09:19:49;;;;;;;5.10;1.85;;;;;;;;;;5054531;28;20439;-82
2023/04/30 09:22:20;;;;;;;6.50;2.20;;;;;;;;;;5055562;28;20745;-81
2023/04/30 09:24:55;;;;;;;6.60;2.30;;;;;;;;;;5056659;28;20806;-82
2023/04/30 09:27:23;;;;;;;5.27;2.10;;;;;;;;;;5055754;28;20456;-83
2023/04/30 09:29:56;;;;;;;5.88;2.17;;;;;;;;;;5061800;28;20438;-83
2023/04/30 09:32:23;;;;;;;8.98;2.30;;;;;;;;;;5054629;28;20831;-82
2023/04/30 09:34:56;;;;;;;6.05;2.20;;;;;;;;;;5055480;28;20440;-81
2023/04/30 09:37:34;;;;;;;8.45;3.00;;;;;;;;;;5057051;28;20440;-82
2023/04/30 09:40:04;;;;;;;5.75;2.10;;;;;;;;;;5058078;28;20447;-82
2023/04/30 09:42:32;;;;;;;5.88;2.20;;;;;;;;;;5057286;28;20448;-80
2023/04/30 09:45:00;;;;;;;6.87;2.17;;;;;;;;;;5052825;28;20898;-82
2023/04/30 09:47:29;;;;;;;8.70;2.38;;;;;;;;;;5060024;28;20421;-82
2023/04/30 09:49:59;;;;;;;6.82;2.10;;;;;;;;;;5054348;28;20421;-83
2023/04/30 09:52:32;;;;;;;7.38;2.50;;;;;;;;;;5055336;28;20429;-80
2023/04/30 09:55:07;;;;;;;9.55;2.33;;;;;;;;;;5060714;28;20421;-81
2023/04/30 09:57:39;;;;;;;10.75;2.45;;;;;;;;;;5064680;28;20427;-83
2023/04/30 10:00:14;;;;;;;5.80;2.03;;;;;;;;;;5064328;28;20437;-82
2023/04/30 10:02:46;;;;;;;7.70;2.22;;;;;;;;;;5054095;28;20890;-82
2023/04/30 10:05:14;;;;;;;7.03;2.50;;;;;;;;;;5059240;28;20417;-81
2023/04/30 10:07:42;;;;;;;6.60;2.10;;;;;;;;;;5056882;28;20432;-81
2023/04/30 10:10:12;;;;;;;9.03;2.37;;;;;;;;;;5055494;28;20431;-82
2023/04/30 10:12:46;;;;;;;7.30;2.42;;;;;;;;;;5055451;28;20427;-82
2023/04/30 10:15:15;;;;;;;6.00;2.28;;;;;;;;;;5058370;28;20415;-81
2023/04/30 10:17:47;;;;;;;5.95;2.22;;;;;;;;;;5058977;28;20427;-82
2023/04/30 10:20:15;;;;;;;6.65;2.10;;;;;;;;;;5059607;28;20404;-82
2023/04/30 10:22:48;;;;;;;9.65;2.20;;;;;;;;;;5056659;28;20424;-80
2023/04/30 10:25:18;;;;;;;8.00;2.20;;;;;;;;;;5061470;28;20418;-81
2023/04/30 10:27:51;;;;;;;8.07;2.50;;;;;;;;;;5056423;28;20423;-82
2023/04/30 10:30:24;;;;;;;9.25;2.38;;;;;;;;;;5066103;28;20433;-81
2023/04/30 10:32:57;;;;;;;7.03;2.60;;;;;;;;;;5065227;28;20428;-82
2023/04/30 10:35:33;;;;;;;8.60;2.45;;;;;;;;;;5057360;28;20432;-82
2023/04/30 10:38:03;;;;;;;7.75;2.50;;;;;;;;;;5055291;28;20942;-82
2023/04/30 10:40:37;;;;;;;8.10;2.30;;;;;;;;;;5059314;28;20904;-83
2023/04/30 10:43:11;;;;;;;6.15;2.40;;;;;;;;;;5056984;28;20419;-80
2023/04/30 10:45:41;;;;;;;6.88;2.40;;;;;;;;;;5059245;28;20909;-82
2023/04/30 10:48:09;;;;;;;6.70;2.20;;;;;;;;;;5052729;28;20421;-81
2023/04/30 10:50:40;;;;;;;8.57;2.33;;;;;;;;;;5055597;28;20427;-82
2023/04/30 10:53:12;;;;;;;8.85;2.38;;;;;;;;;;5063104;28;20421;-83
2023/04/30 10:55:47;;;;;;;6.63;2.20;;;;;;;;;;5058016;28;20414;-82
2023/04/30 10:58:25;;;;;;;8.57;2.40;;;;;;;;;;5076384;28;20438;-82
2023/04/30 11:01:03;;;;;;;7.33;2.50;;;;;;;;;;5056004;28;20440;-80
2023/04/30 11:03:36;;;;;;;7.40;2.47;;;;;;;;;;5065285;28;20422;-81
2023/04/30 11:06:11;;;;;;;9.27;2.58;;;;;;;;;;5060468;28;20425;-82
2023/04/30 11:08:40;;;;;;;7.72;2.47;;;;;;;;;;5060947;28;20401;-82
2023/04/30 11:11:09;;;;;;;7.72;2.40;;;;;;;;;;5061795;28;20429;-81
2023/04/30 11:13:41;;;;;;;7.37;2.40;;;;;;;;;;5074440;28;20427;-81
2023/04/30 11:16:09;;;;;;;9.82;2.40;;;;;;;;;;5068111;28;20428;-82
2023/04/30 11:18:41;;;;;;;6.50;2.60;;;;;;;;;;5055881;28;20420;-80
2023/04/30 11:21:09;;;;;;;6.70;2.45;;;;;;;;;;5065209;28;20487;-80
2023/04/30 11:23:40;;;;;;;7.90;2.58;;;;;;;;;;5064341;28;20448;-81
2023/04/30 11:26:14;;;;;;;6.03;2.20;;;;;;;;;;5058440;28;20431;-82
2023/04/30 11:28:50;;;;;;;6.25;2.80;;;;;;;;;;5058778;28;20835;-81
2023/04/30 11:31:17;;;;;;;7.20;2.55;;;;;;;;;;5059830;28;20421;-80
2023/04/30 11:33:45;;;;;;;6.40;2.45;;;;;;;;;;5062111;28;20424;-81
2023/04/30 11:36:14;;;;;;;8.95;2.60;;;;;;;;;;5054527;28;20435;-85
2023/04/30 11:38:47;;;;;;;5.65;2.30;;;;;;;;;;5064170;28;20427;-82
2023/04/30 11:41:22;;;;;;;9.13;2.60;;;;;;;;;;5061284;28;20434;-85
2023/04/30 11:43:49;;;;;;;6.60;2.30;;;;;;;;;;5062750;28;20437;-81
2023/04/30 11:46:17;;;;;;;5.68;2.45;;;;;;;;;;5068027;28;20435;-86
2023/04/30 11:48:46;;;;;;;6.20;2.08;;;;;;;;;;5057006;28;20425;-81
2023/04/30 11:51:15;;;;;;;6.50;2.38;;;;;;;;;;5056587;28;20442;-84
2023/04/30 11:53:45;;;;;;;5.57;2.45;;;;;;;;;;5056013;28;20425;-82
2023/04/30 11:56:19;;;;;;;9.60;2.80;;;;;;;;;;5063211;28;20432;-81
2023/04/30 11:58:49;;;;;;;7.50;2.55;;;;;;;;;;5061876;28;20782;-85
2023/04/30 12:01:22;;;;;;;7.13;2.50;;;;;;;;;;5060181;28;20447;-83
2023/04/30 12:03:56;;;;;;;8.48;2.63;;;;;;;;;;5059120;28;20422;-80
2023/04/30 12:06:24;;;;;;;7.50;2.35;;;;;;;;;;5060081;28;20431;-84
2023/04/30 12:08:58;;;;;;;7.18;2.70;;;;;;;;;;5065237;28;20424;-86
2023/04/30 12:11:26;;;;;;;6.18;2.38;;;;;;;;;;5057509;28;20801;-81
2023/04/30 12:13:56;;;;;;;7.50;2.50;;;;;;;;;;5060076;28;20427;-80
2023/04/30 12:16:38;;;;;;;7.93;2.15;;;;;;;;;;5063083;28;21022;-79
2023/04/30 12:19:11;;;;;;;5.80;2.47;;;;;;;;;;5060723;28;20438;-81
2023/04/30 12:21:41;;;;;;;7.75;2.70;;;;;;;;;;5058608;28;20425;-81
2023/04/30 12:24:10;;;;;;;6.57;2.40;;;;;;;;;;5056866;28;20440;-79
2023/04/30 12:26:44;;;;;;;8.65;2.40;;;;;;;;;;5058391;28;20434;-80
2023/04/30 12:29:14;;;;;;;6.75;2.38;;;;;;;;;;5075458;28;20792;-82
2023/04/30 12:31:42;;;;;;;6.03;2.20;;;;;;;;;;5059329;28;20436;-80
2023/04/30 12:34:11;;;;;;;7.88;2.50;;;;;;;;;;5064203;28;20440;-80
2023/04/30 12:36:44;;;;;;;6.07;2.20;;;;;;;;;;5067226;28;20422;-80
2023/04/30 12:39:14;;;;;;;7.82;2.78;;;;;;;;;;5059330;28;20465;-82
2023/04/30 12:41:42;;;;;;;6.60;2.35;;;;;;;;;;5058880;28;20879;-81
2023/04/30 12:44:16;;;;;;;7.07;2.80;;;;;;;;;;5059096;28;20963;-82
2023/04/30 12:46:59;;;;;;;7.53;2.50;;;;;;;;;;5055941;28;20423;-83
2023/04/30 12:49:28;;;;;;;7.50;2.40;;;;;;;;;;5066606;28;20419;-81
2023/04/30 12:51:58;;;;;;;6.90;2.67;;;;;;;;;;5057408;28;20437;-81
2023/04/30 12:54:26;;;;;;;6.22;2.40;;;;;;;;;;5059556;28;20492;-80
2023/04/30 12:57:00;;;;;;;8.77;2.55;;;;;;;;;;5064424;28;20797;-80
2023/04/30 12:59:35;;;;;;;6.60;2.50;;;;;;;;;;5058204;28;20437;-80
2023/04/30 13:02:09;;;;;;;7.85;2.28;;;;;;;;;;5059295;28;20447;-81
2023/04/30 13:04:37;;;;;;;7.10;2.35;;;;;;;;;;5074384;28;20440;-80
2023/04/30 13:07:10;;;;;;;6.50;2.20;;;;;;;;;;5059055;28;20430;-80
2023/04/30 13:09:38;;;;;;;7.32;2.22;;;;;;;;;;5050608;28;20424;-82
2023/04/30 13:12:11;;;;;;;7.60;2.55;;;;;;;;;;5057402;28;20440;-80
2023/04/30 13:14:45;;;;;;;7.82;2.53;;;;;;;;;;5058942;28;20438;-80
2023/04/30 13:17:13;;;;;;;5.97;2.42;;;;;;;;;;5057287;28;20427;-81
2023/04/30 13:19:45;;;;;;;8.73;2.67;;;;;;;;;;5059417;28;20988;-82
2023/04/30 13:22:18;;;;;;;6.90;2.50;;;;;;;;;;5058503;28;20435;-80
2023/04/30 13:24:51;;;;;;;7.15;2.40;;;;;;;;;;5061158;28;20424;-81
2023/04/30 13:27:19;;;;;;;6.60;2.47;;;;;;;;;;5055016;28;20465;-81
2023/04/30 13:29:48;;;;;;;7.95;2.50;;;;;;;;;;5061862;28;20413;-80
2023/04/30 13:32:21;;;;;;;7.20;2.40;;;;;;;;;;5057296;28;21476;-80
2023/04/30 13:34:51;;;;;;;6.38;2.38;;;;;;;;;;5058267;28;20432;-80
2023/04/30 13:37:18;;;;;;;9.18;2.40;;;;;;;;;;5057856;28;20401;-80
2023/04/30 13:39:51;;;;;;;6.20;2.40;;;;;;;;;;5042078;28;20443;-81
2023/04/30 13:42:19;;;;;;;6.47;2.33;;;;;;;;;;5050933;28;20429;-81
2023/04/30 13:44:48;;;;;;;5.30;2.10;;;;;;;;;;5041313;28;20416;-82
2023/04/30 13:47:21;;;;;;;8.50;2.38;;;;;;;;;;5038340;28;20423;-81
2023/04/30 13:49:49;;;;;;;6.80;2.28;;;;;;;;;;5036843;28;20447;-83
2023/04/30 13:52:17;;;;;;;8.68;2.50;;;;;;;;;;5041463;28;20424;-85
2023/04/30 13:54:46;;;;;;;5.75;2.20;;;;;;;;;;5045953;28;21628;-82
2023/04/30 13:57:19;;;;;;;7.05;2.42;;;;;;;;;;5047397;28;21706;-82
2023/04/30 13:59:49;;;;;;;6.17;2.40;;;;;;;;;;5047280;28;20989;-84
2023/04/30 14:02:22;;;;;;;6.10;2.50;;;;;;;;;;5044959;28;20458;-81
2023/04/30 14:04:50;;;;;;;9.23;2.40;;;;;;;;;;5044464;28;20434;-80
2023/04/30 14:07:23;;;;;;;7.03;2.80;;;;;;;;;;5046544;28;20511;-81
2023/04/30 14:09:56;;;;;;;5.70;2.10;;;;;;;;;;5038857;28;20419;-81
2023/04/30 14:12:24;;;;;;;6.32;2.33;;;;;;;;;;5042524;28;20438;-81
2023/04/30 14:14:58;;;;;;;6.80;2.45;;;;;;;;;;5041820;28;20442;-82
2023/04/30 14:17:31;;;;;;;9.05;2.58;;;;;;;;;;5053438;28;20431;-82
2023/04/30 14:19:59;;;;;;;6.57;2.50;;;;;;;;;;5056371;28;20427;-80
2023/04/30 14:22:26;;;;;;;6.22;2.28;;;;;;;;;;5060194;28;20428;-81
2023/04/30 14:24:59;;;;;;;6.68;2.33;;;;;;;;;;5061732;28;20428;-80
2023/04/30 14:27:27;;;;;;;6.53;2.45;;;;;;;;;;5058044;28;20421;-80
2023/04/30 14:29:55;;;;;;;6.22;2.05;;;;;;;;;;5065593;28;20416;-80
2023/04/30 14:32:24;;;;;;;6.22;2.42;;;;;;;;;;5058400;28;20415;-79
2023/04/30 14:34:57;;;;;;;7.38;2.22;;;;;;;;;;5056293;28;20431;-80
2023/04/30 14:37:25;;;;;;;6.97;2.10;;;;;;;;;;5053946;28;20424;-80
2023/04/30 14:39:56;;;;;;;8.43;2.60;;;;;;;;;;5057558;28;20432;-80
2023/04/30 14:42:24;;;;;;;8.07;2.35;;;;;;;;;;5057684;28;20432;-82
2023/04/30 14:44:57;;;;;;;7.43;2.38;;;;;;;;;;5057424;28;20427;-82
2023/04/30 14:47:26;;;;;;;8.23;2.28;;;;;;;;;;5056058;28;20443;-81
2023/04/30 14:50:01;;;;;;;5.78;2.08;;;;;;;;;;5059026;28;20918;-82
2023/04/30 14:52:34;;;;;;;6.47;2.20;;;;;;;;;;5067970;28;20444;-81
2023/04/30 14:55:07;;;;;;;6.65;2.50;;;;;;;;;;5067487;28;20427;-83
2023/04/30 14:57:39;;;;;;;7.50;2.40;;;;;;;;;;5058910;28;20436;-80
2023/04/30 15:00:08;;;;;;;6.93;2.40;;;;;;;;;;5057647;28;20433;-80